createdAt,value
2023-03-24T00:01:02.831Z,20.02
2023-03-24T00:02:04.860Z,17.85
2023-03-24T00:03:07.703Z,18.75
2023-03-24T00:04:09.855Z,19.30
2023-03-24T00:05:20.588Z,17.38
2023-03-24T00:06:26.664Z,14.93
2023-03-24T00:07:30.550Z,16.17
2023-03-24T00:08:36.564Z,14.50
2023-03-24T00:09:38.502Z,14.73
2023-03-24T00:10:40.634Z,13.75
2023-03-24T00:11:42.972Z,13.38
2023-03-24T00:12:46.745Z,13.07
2023-03-24T00:13:50.733Z,14.70
2023-03-24T00:14:54.652Z,11.68
2023-03-24T00:15:56.774Z,12.25
2023-03-24T00:16:59.843Z,10.90
2023-03-24T00:18:01.750Z,9.65
2023-03-24T00:19:03.471Z,13.05
2023-03-24T00:20:08.343Z,8.63
2023-03-24T00:21:11.780Z,10.10
2023-03-24T00:22:14.639Z,9.90
2023-03-24T00:23:16.558Z,10.85
2023-03-24T00:24:18.770Z,9.63
2023-03-24T00:25:28.236Z,9.95
2023-03-24T00:26:30.124Z,10.27
2023-03-24T00:27:36.912Z,8.15
2023-03-24T00:28:39.260Z,9.60
2023-03-24T00:29:41.590Z,8.05
2023-03-24T00:30:43.453Z,9.90
2023-03-24T00:31:46.080Z,9.02
2023-03-24T00:32:47.910Z,9.25
2023-03-24T00:33:52.287Z,9.25
2023-03-24T00:34:54.357Z,7.55
2023-03-24T00:35:57.946Z,9.13
2023-03-24T00:36:59.845Z,8.95
2023-03-24T00:38:04.077Z,10.57
2023-03-24T00:39:06.536Z,10.75
2023-03-24T00:40:12.696Z,10.43
2023-03-24T00:41:14.756Z,10.45
2023-03-24T00:42:16.608Z,10.57
2023-03-24T00:43:19.332Z,10.63
2023-03-24T00:44:21.249Z,10.27
2023-03-24T00:45:25.828Z,13.15
2023-03-24T00:46:28.237Z,12.98
2023-03-24T00:47:31.168Z,15.57
2023-03-24T00:48:33.039Z,10.68
2023-03-24T00:49:45.008Z,12.70
2023-03-24T00:50:48.561Z,10.35
2023-03-24T00:51:51.362Z,11.90
2023-03-24T00:52:54.259Z,11.15
2023-03-24T00:53:58.272Z,10.45
2023-03-24T00:55:02.166Z,9.00
2023-03-24T00:56:04.163Z,9.55
2023-03-24T00:57:08.071Z,8.68
2023-03-24T00:58:09.801Z,9.15
2023-03-24T00:59:14.063Z,7.45
2023-03-24T01:00:21.245Z,8.52
2023-03-24T01:01:23.063Z,9.25
2023-03-24T01:02:27.973Z,9.77
2023-03-24T01:03:29.822Z,8.88
2023-03-24T01:04:31.815Z,9.85
2023-03-24T01:05:33.982Z,8.20
2023-03-24T01:06:39.537Z,9.63
2023-03-24T01:07:44.297Z,9.18
2023-03-24T01:08:46.178Z,7.45
2023-03-24T01:09:57.362Z,8.68
2023-03-24T01:11:01.406Z,8.10
2023-03-24T01:12:04.504Z,7.78
2023-03-24T01:13:06.202Z,8.52
2023-03-24T01:14:09.764Z,11.70
2023-03-24T01:15:17.705Z,9.77
2023-03-24T01:16:19.855Z,9.75
2023-03-24T01:17:27.616Z,8.48
2023-03-24T01:18:29.955Z,11.07
2023-03-24T01:19:33.183Z,10.48
2023-03-24T01:20:37.426Z,10.27
2023-03-24T01:21:39.669Z,9.40
2023-03-24T01:22:45.106Z,8.48
2023-03-24T01:23:47.757Z,7.28
2023-03-24T01:24:50.509Z,10.02
2023-03-24T01:25:54.164Z,8.70
2023-03-24T01:26:56.131Z,8.80
2023-03-24T01:27:57.916Z,8.57
2023-03-24T01:28:59.611Z,9.70
2023-03-24T01:30:03.723Z,9.70
2023-03-24T01:31:08.719Z,10.25
2023-03-24T01:32:10.451Z,11.07
2023-03-24T01:33:12.241Z,11.43
2023-03-24T01:34:16.364Z,9.23
2023-03-24T01:35:18.824Z,10.32
2023-03-24T01:36:23.159Z,8.32
2023-03-24T01:37:24.898Z,9.73
2023-03-24T01:38:26.650Z,8.52
2023-03-24T01:39:28.662Z,9.75
2023-03-24T01:40:32.728Z,9.13
2023-03-24T01:41:42.486Z,9.48
2023-03-24T01:42:44.528Z,10.45
2023-03-24T01:43:48.709Z,8.57
2023-03-24T01:44:52.499Z,8.82
2023-03-24T01:46:00.706Z,9.30
2023-03-24T01:47:06.779Z,8.93
2023-03-24T01:48:16.401Z,8.27
2023-03-24T01:49:21.220Z,9.75
2023-03-24T01:50:23.544Z,11.18
2023-03-24T01:51:35.510Z,11.38
2023-03-24T01:52:37.882Z,8.25
2023-03-24T01:53:45.462Z,9.93
2023-03-24T01:54:58.517Z,8.60
2023-03-24T01:56:03.226Z,8.75
2023-03-24T01:57:31.089Z,8.60
2023-03-24T01:58:36.132Z,7.80
2023-03-24T01:59:43.294Z,7.53
2023-03-24T02:00:45.520Z,7.72
2023-03-24T02:01:47.875Z,7.40
2023-03-24T02:02:55.066Z,9.25
2023-03-24T02:03:59.180Z,7.90
2023-03-24T02:05:06.385Z,6.32
2023-03-24T02:06:08.984Z,15.88
2023-03-24T02:07:26.604Z,6.30
2023-03-24T02:08:37.231Z,6.68
2023-03-24T02:09:38.970Z,6.57
2023-03-24T02:10:41.073Z,8.13
2023-03-24T02:11:43.988Z,7.20
2023-03-24T02:12:49.767Z,7.93
2023-03-24T02:13:51.590Z,6.70
2023-03-24T02:14:54.048Z,8.05
2023-03-24T02:15:58.700Z,9.00
2023-03-24T02:17:11.446Z,7.43
2023-03-24T02:18:34.235Z,8.15
2023-03-24T02:20:12.557Z,7.72
2023-03-24T02:21:52.383Z,6.82
2023-03-24T02:23:06.884Z,7.18
2023-03-24T02:24:27.295Z,7.18
2023-03-24T02:26:19.475Z,6.00
2023-03-24T02:27:24.220Z,8.57
2023-03-24T02:28:29.045Z,7.63
2023-03-24T02:30:00.649Z,6.65
2023-03-24T02:32:03.930Z,7.78
2023-03-24T02:33:08.656Z,7.97
2023-03-24T02:34:18.214Z,8.43
2023-03-24T02:35:58.235Z,8.30
2023-03-24T02:37:14.905Z,7.72
2023-03-24T02:38:53.954Z,9.05
2023-03-24T02:40:17.568Z,8.52
2023-03-24T02:41:51.839Z,8.07
2023-03-24T02:43:00.932Z,8.75
2023-03-24T02:44:09.092Z,8.65
2023-03-24T02:45:29.717Z,11.18
2023-03-24T02:46:54.617Z,12.55
2023-03-24T02:48:14.523Z,9.05
2023-03-24T02:49:31.258Z,9.32
2023-03-24T02:51:31.597Z,10.98
2023-03-24T02:52:40.574Z,10.57
2023-03-24T02:54:00.386Z,8.73
2023-03-24T02:55:14.598Z,9.70
2023-03-24T02:56:41.767Z,10.30
2023-03-24T02:57:55.249Z,8.82
2023-03-24T02:59:02.620Z,13.30
2023-03-24T03:00:18.761Z,12.43
2023-03-24T03:01:32.574Z,14.05
2023-03-24T03:02:39.751Z,12.90
2023-03-24T03:03:48.558Z,11.73
2023-03-24T03:04:56.587Z,12.38
2023-03-24T03:06:04.112Z,11.32
2023-03-24T03:07:12.899Z,9.55
2023-03-24T03:08:21.216Z,8.55
2023-03-24T03:09:24.904Z,8.05
2023-03-24T03:10:47.650Z,11.13
2023-03-24T03:11:54.401Z,9.82
2023-03-24T03:13:01.666Z,10.20
2023-03-24T03:14:08.425Z,8.65
2023-03-24T03:15:16.683Z,6.95
2023-03-24T03:16:25.640Z,6.97
2023-03-24T03:17:33.269Z,8.13
2023-03-24T03:18:45.410Z,7.60
2023-03-24T03:19:55.649Z,9.65
2023-03-24T03:21:04.579Z,9.10
2023-03-24T03:22:13.172Z,9.32
2023-03-24T03:23:17.084Z,7.20
2023-03-24T03:24:27.007Z,11.70
2023-03-24T03:25:38.776Z,10.55
2023-03-24T03:27:50.483Z,13.98
2023-03-24T03:28:58.179Z,11.35
2023-03-24T03:30:13.473Z,12.25
2023-03-24T03:31:22.953Z,10.48
2023-03-24T03:32:29.996Z,12.32
2023-03-24T03:33:41.637Z,10.13
2023-03-24T03:34:54.717Z,12.98
2023-03-24T03:36:11.106Z,10.98
2023-03-24T03:37:30.880Z,16.42
2023-03-24T03:38:54.321Z,15.93
2023-03-24T03:40:00.111Z,16.25
2023-03-24T03:41:06.803Z,10.45
2023-03-24T03:42:08.598Z,9.85
2023-03-24T03:43:10.388Z,9.48
2023-03-24T03:44:12.257Z,9.98
2023-03-24T03:45:14.769Z,11.68
2023-03-24T03:46:18.636Z,9.80
2023-03-24T03:47:23.085Z,8.80
2023-03-24T03:48:26.778Z,9.00
2023-03-24T03:49:28.714Z,9.57
2023-03-24T03:50:31.301Z,9.35
2023-03-24T03:51:33.990Z,8.38
2023-03-24T03:52:38.470Z,9.02
2023-03-24T03:53:53.599Z,7.57
2023-03-24T03:54:56.698Z,8.70
2023-03-24T03:55:58.828Z,7.90
2023-03-24T03:57:00.908Z,11.05
2023-03-24T03:58:05.655Z,9.85
2023-03-24T03:59:10.361Z,10.20
2023-03-24T04:00:24.772Z,12.80
2023-03-24T04:01:31.195Z,10.43
2023-03-24T04:02:42.388Z,12.02
2023-03-24T04:04:10.692Z,8.82
2023-03-24T04:05:33.481Z,11.00
2023-03-24T04:06:36.185Z,8.70
2023-03-24T04:08:03.804Z,11.63
2023-03-24T04:09:15.802Z,12.55
2023-03-24T04:10:23.292Z,10.88
2023-03-24T04:11:46.665Z,9.68
2023-03-24T04:13:03.143Z,11.77
2023-03-24T04:14:23.588Z,10.50
2023-03-24T04:15:25.416Z,14.25
2023-03-24T04:16:29.823Z,13.63
2023-03-24T04:17:40.506Z,15.70
2023-03-24T04:18:58.433Z,14.30
2023-03-24T04:20:15.202Z,13.95
2023-03-24T04:21:23.345Z,14.18
2023-03-24T04:22:57.227Z,12.85
2023-03-24T04:24:29.200Z,13.15
2023-03-24T04:26:02.272Z,14.30
2023-03-24T04:27:09.497Z,14.18
2023-03-24T04:28:31.180Z,15.32
2023-03-24T04:30:50.566Z,11.90
2023-03-24T04:32:02.418Z,13.80
2023-03-24T04:33:08.758Z,15.00
2023-03-24T04:34:16.500Z,13.15
2023-03-24T04:35:31.845Z,12.23
2023-03-24T04:36:45.456Z,16.50
2023-03-24T04:37:48.828Z,11.60
2023-03-24T04:38:55.192Z,14.13
2023-03-24T04:39:59.263Z,15.18
2023-03-24T04:41:03.220Z,15.13
2023-03-24T04:42:10.612Z,20.85
2023-03-24T04:43:19.708Z,16.17
2023-03-24T04:44:22.805Z,17.25
2023-03-24T04:45:26.057Z,16.70
2023-03-24T04:46:28.610Z,17.88
2023-03-24T04:47:34.871Z,16.00
2023-03-24T04:48:36.727Z,15.65
2023-03-24T04:49:42.520Z,13.40
2023-03-24T04:50:53.139Z,13.27
2023-03-24T04:51:55.842Z,15.27
2023-03-24T04:53:00.571Z,14.00
2023-03-24T04:54:02.287Z,13.30
2023-03-24T04:55:24.455Z,10.75
2023-03-24T04:56:34.998Z,14.40
2023-03-24T04:57:36.768Z,14.27
2023-03-24T04:58:38.479Z,12.32
2023-03-24T04:59:40.716Z,14.30
2023-03-24T05:00:44.359Z,14.85
2023-03-24T05:01:52.299Z,12.45
2023-03-24T05:02:54.077Z,11.52
2023-03-24T05:03:59.649Z,9.73
2023-03-24T05:05:01.639Z,6.50
2023-03-24T05:06:05.914Z,8.95
2023-03-24T05:07:07.822Z,7.45
2023-03-24T05:08:11.013Z,6.90
2023-03-24T05:09:15.027Z,6.13
2023-03-24T05:10:17.038Z,6.22
2023-03-24T05:11:21.854Z,6.65
2023-03-24T05:12:26.006Z,6.55
2023-03-24T05:13:27.768Z,7.45
2023-03-24T05:14:29.465Z,6.45
2023-03-24T05:15:31.762Z,8.18
2023-03-24T05:16:33.663Z,6.30
2023-03-24T05:17:35.477Z,8.45
2023-03-24T05:18:37.332Z,7.45
2023-03-24T05:19:39.076Z,7.95
2023-03-24T05:20:41.333Z,6.03
2023-03-24T05:21:43.081Z,7.50
2023-03-24T05:22:47.667Z,7.07
2023-03-24T05:23:52.071Z,10.25
2023-03-24T05:24:53.747Z,11.07
2023-03-24T05:25:55.442Z,10.77
2023-03-24T05:26:57.182Z,10.68
2023-03-24T05:28:06.944Z,10.15
2023-03-24T05:29:08.673Z,9.40
2023-03-24T05:30:13.367Z,8.90
2023-03-24T05:31:15.121Z,10.95
2023-03-24T05:32:16.851Z,9.07
2023-03-24T05:33:18.699Z,11.10
2023-03-24T05:34:22.338Z,8.52
2023-03-24T05:35:25.050Z,9.48
2023-03-24T05:36:26.901Z,9.57
2023-03-24T05:37:28.607Z,10.13
2023-03-24T05:38:30.835Z,8.98
2023-03-24T05:39:32.508Z,9.40
2023-03-24T05:40:34.260Z,12.05
2023-03-24T05:41:36.083Z,9.80
2023-03-24T05:42:40.619Z,12.13
2023-03-24T05:43:42.404Z,11.90
2023-03-24T05:44:47.343Z,12.15
2023-03-24T05:45:49.268Z,12.32
2023-03-24T05:46:51.069Z,14.13
2023-03-24T05:47:52.850Z,12.55
2023-03-24T05:48:54.662Z,13.70
2023-03-24T05:49:56.382Z,12.88
2023-03-24T05:50:58.197Z,12.85
2023-03-24T05:52:00.429Z,12.90
2023-03-24T05:53:02.183Z,16.60
2023-03-24T05:54:06.330Z,14.82
2023-03-24T05:55:11.125Z,11.95
2023-03-24T05:56:12.891Z,13.68
2023-03-24T05:57:16.481Z,12.73
2023-03-24T05:58:20.052Z,12.32
2023-03-24T05:59:24.418Z,10.15
2023-03-24T06:00:26.712Z,10.20
2023-03-24T06:01:29.111Z,11.10
2023-03-24T06:02:32.012Z,12.52
2023-03-24T06:03:34.845Z,11.70
2023-03-24T06:04:36.812Z,11.50
2023-03-24T06:05:38.614Z,10.40
2023-03-24T06:06:41.119Z,12.60
2023-03-24T06:07:42.820Z,13.38
2023-03-24T06:08:47.626Z,13.50
2023-03-24T06:09:51.078Z,15.35
2023-03-24T06:10:53.579Z,14.63
2023-03-24T06:11:59.274Z,12.77
2023-03-24T06:13:00.981Z,13.57
2023-03-24T06:14:02.746Z,12.48
2023-03-24T06:15:05.130Z,13.73
2023-03-24T06:16:07.841Z,12.07
2023-03-24T06:17:14.899Z,12.48
2023-03-24T06:18:21.606Z,12.60
2023-03-24T06:19:24.824Z,14.45
2023-03-24T06:20:29.723Z,12.13
2023-03-24T06:21:33.891Z,12.25
2023-03-24T06:22:37.468Z,16.00
2023-03-24T06:23:39.491Z,15.52
2023-03-24T06:24:41.177Z,10.60
2023-03-24T06:25:47.745Z,13.13
2023-03-24T06:26:50.245Z,11.77
2023-03-24T06:27:52.118Z,11.63
2023-03-24T06:28:53.809Z,11.60
2023-03-24T06:29:56.047Z,11.48
2023-03-24T06:30:59.064Z,12.13
2023-03-24T06:32:01.247Z,12.60
2023-03-24T06:33:03.449Z,10.90
2023-03-24T06:34:05.805Z,11.70
2023-03-24T06:35:07.783Z,13.55
2023-03-24T06:36:12.404Z,10.88
2023-03-24T06:37:16.596Z,12.55
2023-03-24T06:38:18.719Z,13.23
2023-03-24T06:39:20.531Z,13.50
2023-03-24T06:40:25.038Z,12.15
2023-03-24T06:41:29.358Z,10.00
2023-03-24T06:42:31.067Z,12.65
2023-03-24T06:43:33.475Z,11.88
2023-03-24T06:44:36.052Z,13.10
2023-03-24T06:45:39.595Z,12.27
2023-03-24T06:46:41.949Z,11.93
2023-03-24T06:47:46.591Z,13.63
2023-03-24T06:48:49.309Z,13.40
2023-03-24T06:49:51.091Z,12.13
2023-03-24T06:50:54.121Z,15.45
2023-03-24T06:51:55.874Z,12.05
2023-03-24T06:52:57.577Z,14.88
2023-03-24T06:54:02.107Z,14.35
2023-03-24T06:55:05.009Z,12.07
2023-03-24T06:56:07.667Z,9.73
2023-03-24T06:57:09.486Z,11.70
2023-03-24T06:58:13.777Z,9.27
2023-03-24T06:59:17.878Z,36.63
2023-03-24T07:00:20.073Z,10.80
2023-03-24T07:01:22.450Z,11.15
2023-03-24T07:02:24.309Z,10.43
2023-03-24T07:03:26.863Z,9.80
2023-03-24T07:04:29.131Z,13.40
2023-03-24T07:05:30.828Z,11.77
2023-03-24T07:06:40.404Z,11.45
2023-03-24T07:08:50.683Z,12.93
2023-03-24T07:09:52.446Z,11.32
2023-03-24T07:10:54.134Z,11.07
2023-03-24T07:11:56.044Z,10.27
2023-03-24T07:12:57.905Z,10.18
2023-03-24T07:13:59.780Z,9.25
2023-03-24T07:15:04.187Z,9.35
2023-03-24T07:16:06.296Z,9.23
2023-03-24T07:17:08.076Z,9.88
2023-03-24T07:18:09.811Z,8.70
2023-03-24T07:19:12.620Z,11.98
2023-03-24T07:20:14.332Z,12.55
2023-03-24T07:21:18.484Z,10.00
2023-03-24T07:22:20.637Z,9.93
2023-03-24T07:23:22.351Z,10.75
2023-03-24T07:24:24.151Z,10.68
2023-03-24T07:25:27.319Z,12.50
2023-03-24T07:26:31.445Z,9.07
2023-03-24T07:27:33.761Z,9.13
2023-03-24T07:28:38.356Z,10.45
2023-03-24T07:29:40.052Z,9.48
2023-03-24T07:30:41.914Z,9.30
2023-03-24T07:31:44.929Z,8.70
2023-03-24T07:32:49.378Z,10.55
2023-03-24T07:33:51.547Z,9.60
2023-03-24T07:34:53.517Z,9.15
2023-03-24T07:36:00.763Z,8.80
2023-03-24T07:37:02.749Z,10.20
2023-03-24T07:38:04.850Z,8.60
2023-03-24T07:39:07.166Z,8.82
2023-03-24T07:40:19.980Z,11.70
2023-03-24T07:41:21.678Z,8.15
2023-03-24T07:42:26.226Z,7.85
2023-03-24T07:43:27.954Z,9.35
2023-03-24T07:44:29.687Z,9.27
2023-03-24T07:45:32.565Z,8.63
2023-03-24T07:46:34.833Z,13.52
2023-03-24T07:47:37.029Z,7.82
2023-03-24T07:48:38.777Z,11.10
2023-03-24T07:49:40.772Z,11.68
2023-03-24T07:50:42.672Z,8.90
2023-03-24T07:51:44.607Z,8.00
2023-03-24T07:52:50.322Z,7.95
2023-03-24T07:53:52.363Z,8.52
2023-03-24T07:54:54.123Z,8.75
2023-03-24T07:55:55.909Z,10.60
2023-03-24T07:56:57.669Z,7.68
2023-03-24T07:57:59.430Z,9.23
2023-03-24T07:59:01.480Z,9.40
2023-03-24T08:00:20.342Z,8.05
2023-03-24T08:01:22.061Z,7.93
2023-03-24T08:02:23.937Z,8.25
2023-03-24T08:03:28.693Z,8.65
2023-03-24T08:04:32.054Z,9.63
2023-03-24T08:05:33.838Z,8.57
2023-03-24T08:06:37.889Z,10.52
2023-03-24T08:07:42.851Z,8.70
2023-03-24T08:08:44.559Z,9.07
2023-03-24T08:09:46.427Z,10.95
2023-03-24T08:10:50.292Z,11.00
2023-03-24T08:11:52.118Z,8.35
2023-03-24T08:12:54.749Z,10.50
2023-03-24T08:13:58.342Z,10.52
2023-03-24T08:15:00.109Z,10.32
2023-03-24T08:16:01.862Z,11.02
2023-03-24T08:17:03.854Z,9.23
2023-03-24T08:18:06.534Z,8.30
2023-03-24T08:19:08.365Z,10.18
2023-03-24T08:20:14.900Z,7.63
2023-03-24T08:21:18.053Z,10.77
2023-03-24T08:22:19.751Z,9.30
2023-03-24T08:23:21.515Z,15.07
2023-03-24T08:24:25.744Z,9.35
2023-03-24T08:25:29.932Z,10.40
2023-03-24T08:26:35.348Z,9.35
2023-03-24T08:27:38.597Z,9.65
2023-03-24T08:28:40.347Z,8.43
2023-03-24T08:29:42.112Z,8.35
2023-03-24T08:30:46.377Z,8.45
2023-03-24T08:31:50.408Z,7.43
2023-03-24T08:32:57.813Z,9.15
2023-03-24T08:33:59.991Z,8.35
2023-03-24T08:35:02.832Z,7.63
2023-03-24T08:36:04.853Z,7.68
2023-03-24T08:37:06.574Z,7.85
2023-03-24T08:38:09.909Z,9.82
2023-03-24T08:39:12.740Z,8.45
2023-03-24T08:40:19.407Z,7.47
2023-03-24T08:41:22.844Z,9.63
2023-03-24T08:42:25.822Z,9.52
2023-03-24T08:43:28.768Z,8.32
2023-03-24T08:44:32.460Z,8.00
2023-03-24T08:45:36.567Z,7.57
2023-03-24T08:46:39.308Z,8.70
2023-03-24T08:47:41.680Z,8.25
2023-03-24T08:48:44.002Z,7.75
2023-03-24T08:49:45.709Z,8.80
2023-03-24T08:50:47.470Z,7.55
2023-03-24T08:51:49.312Z,8.73
2023-03-24T08:52:51.081Z,7.97
2023-03-24T08:53:54.059Z,8.60
2023-03-24T08:54:57.806Z,7.90
2023-03-24T08:55:59.509Z,9.00
2023-03-24T08:57:01.367Z,8.38
2023-03-24T08:58:03.662Z,10.88
2023-03-24T08:59:06.860Z,12.25
2023-03-24T09:00:15.573Z,11.32
2023-03-24T09:01:18.577Z,8.18
2023-03-24T09:02:20.478Z,11.65
2023-03-24T09:03:22.768Z,8.43
2023-03-24T09:04:24.801Z,9.02
2023-03-24T09:05:43.558Z,9.65
2023-03-24T09:06:50.015Z,10.52
2023-03-24T09:07:51.844Z,11.23
2023-03-24T09:08:54.531Z,11.68
2023-03-24T09:09:56.454Z,9.35
2023-03-24T09:10:58.469Z,10.63
2023-03-24T09:12:00.200Z,9.07
2023-03-24T09:13:04.507Z,16.55
2023-03-24T09:14:06.485Z,11.45
2023-03-24T09:15:11.725Z,9.90
2023-03-24T09:16:17.974Z,9.02
2023-03-24T09:17:19.735Z,10.65
2023-03-24T09:18:22.488Z,10.15
2023-03-24T09:19:24.282Z,9.90
2023-03-24T09:20:33.989Z,10.48
2023-03-24T09:21:36.217Z,9.52
2023-03-24T09:22:44.261Z,10.95
2023-03-24T09:23:46.274Z,10.80
2023-03-24T09:24:49.306Z,9.60
2023-03-24T09:25:55.672Z,10.38
2023-03-24T09:26:57.432Z,11.35
2023-03-24T09:27:59.221Z,10.13
2023-03-24T09:29:01.085Z,11.90
2023-03-24T09:30:03.646Z,10.88
2023-03-24T09:31:08.668Z,10.40
2023-03-24T09:32:13.437Z,9.70
2023-03-24T09:33:15.549Z,8.77
2023-03-24T09:34:19.465Z,9.65
2023-03-24T09:35:21.158Z,10.55
2023-03-24T09:36:23.132Z,9.95
2023-03-24T09:37:26.745Z,9.68
2023-03-24T09:38:29.319Z,10.35
2023-03-24T09:39:31.188Z,9.90
2023-03-24T09:40:38.257Z,11.85
2023-03-24T09:41:40.068Z,10.23
2023-03-24T09:42:42.112Z,10.55
2023-03-24T09:43:59.224Z,9.55
2023-03-24T09:45:18.453Z,10.80
2023-03-24T09:46:36.111Z,9.98
2023-03-24T09:47:42.228Z,11.85
2023-03-24T09:48:54.396Z,9.93
2023-03-24T09:50:01.246Z,12.10
2023-03-24T09:51:15.848Z,11.65
2023-03-24T09:52:28.169Z,10.15
2023-03-24T09:53:38.347Z,12.57
2023-03-24T09:54:54.696Z,12.70
2023-03-24T09:56:02.595Z,11.10
2023-03-24T09:57:04.900Z,10.68
2023-03-24T09:58:10.469Z,10.65
2023-03-24T09:59:45.713Z,10.55
2023-03-24T10:00:47.690Z,11.07
2023-03-24T10:01:49.871Z,10.20
2023-03-24T10:02:53.718Z,9.65
2023-03-24T10:03:59.723Z,12.00
2023-03-24T10:05:12.199Z,9.85
2023-03-24T10:06:26.058Z,12.15
2023-03-24T10:07:43.355Z,11.23
2023-03-24T10:08:51.705Z,10.95
2023-03-24T10:09:58.013Z,11.82
2023-03-24T10:11:09.819Z,14.15
2023-03-24T10:12:22.499Z,10.20
2023-03-24T10:13:48.712Z,9.50
2023-03-24T10:15:05.717Z,12.32
2023-03-24T10:16:26.143Z,14.85
2023-03-24T10:18:06.552Z,14.00
2023-03-24T10:19:48.712Z,12.93
2023-03-24T10:20:59.454Z,13.30
2023-03-24T10:22:22.190Z,14.70
2023-03-24T10:23:54.630Z,13.90
2023-03-24T10:25:01.385Z,14.98
2023-03-24T10:26:16.537Z,13.52
2023-03-24T10:27:23.757Z,13.75
2023-03-24T10:28:32.039Z,13.35
2023-03-24T10:29:36.398Z,12.05
2023-03-24T10:30:43.946Z,12.27
2023-03-24T10:31:51.869Z,14.77
2023-03-24T10:32:55.052Z,11.52
2023-03-24T10:33:59.933Z,16.45
2023-03-24T10:35:10.076Z,13.27
2023-03-24T10:36:15.907Z,13.77
2023-03-24T10:37:17.797Z,13.10
2023-03-24T10:38:21.963Z,13.57
2023-03-24T10:39:28.617Z,12.57
2023-03-24T10:40:45.347Z,16.55
2023-03-24T10:41:51.991Z,15.40
2023-03-24T10:43:07.033Z,13.70
2023-03-24T10:44:13.965Z,13.02
2023-03-24T10:45:26.961Z,12.60
2023-03-24T10:46:31.556Z,13.60
2023-03-24T10:47:34.415Z,15.63
2023-03-24T10:48:46.787Z,15.13
2023-03-24T10:50:12.583Z,13.63
2023-03-24T10:51:23.510Z,15.68
2023-03-24T10:52:25.400Z,10.68
2023-03-24T10:53:27.786Z,15.57
2023-03-24T10:54:36.938Z,16.02
2023-03-24T10:55:40.006Z,13.68
2023-03-24T10:57:04.730Z,12.88
2023-03-24T10:58:20.403Z,13.50
2023-03-24T10:59:34.916Z,11.52
2023-03-24T11:00:40.042Z,9.88
2023-03-24T11:01:43.476Z,12.13
2023-03-24T11:02:53.035Z,11.00
2023-03-24T11:04:04.234Z,10.43
2023-03-24T11:05:22.694Z,11.88
2023-03-24T11:06:24.742Z,9.90
2023-03-24T11:07:37.468Z,12.73
2023-03-24T11:08:40.305Z,10.43
2023-03-24T11:09:47.451Z,9.40
2023-03-24T11:10:49.413Z,10.70
2023-03-24T11:11:52.712Z,9.35
2023-03-24T11:12:54.391Z,13.00
2023-03-24T11:14:03.627Z,9.20
2023-03-24T11:15:30.522Z,8.48
2023-03-24T11:16:37.270Z,8.65
2023-03-24T11:17:39.235Z,11.32
2023-03-24T11:19:03.578Z,8.68
2023-03-24T11:20:20.462Z,8.07
2023-03-24T11:21:22.454Z,10.32
2023-03-24T11:22:25.721Z,9.52
2023-03-24T11:23:33.536Z,8.50
2023-03-24T11:24:39.309Z,9.07
2023-03-24T11:25:44.385Z,9.25
2023-03-24T11:27:02.115Z,13.73
2023-03-24T11:28:09.355Z,9.02
2023-03-24T11:29:20.173Z,8.20
2023-03-24T11:30:22.006Z,7.80
2023-03-24T11:31:30.826Z,11.05
2023-03-24T11:32:33.066Z,9.25
2023-03-24T11:33:43.562Z,8.23
2023-03-24T11:34:50.034Z,16.33
2023-03-24T11:36:02.969Z,7.85
2023-03-24T11:37:14.445Z,12.55
2023-03-24T11:38:19.402Z,9.13
2023-03-24T11:39:26.631Z,10.23
2023-03-24T11:40:28.305Z,7.63
2023-03-24T11:41:30.529Z,8.10
2023-03-24T11:42:32.290Z,8.13
2023-03-24T11:43:34.092Z,7.95
2023-03-24T11:44:38.506Z,7.32
2023-03-24T11:45:43.430Z,7.78
2023-03-24T11:46:48.655Z,9.77
2023-03-24T11:47:52.861Z,9.40
2023-03-24T11:48:59.770Z,8.70
2023-03-24T11:50:10.547Z,8.98
2023-03-24T11:51:23.737Z,7.70
2023-03-24T11:52:31.873Z,8.68
2023-03-24T11:53:48.160Z,7.75
2023-03-24T11:54:49.977Z,12.70
2023-03-24T11:55:53.679Z,8.43
2023-03-24T11:56:59.957Z,11.70
2023-03-24T11:58:33.150Z,7.03
2023-03-24T11:59:37.927Z,6.90
2023-03-24T12:00:48.847Z,8.07
2023-03-24T12:03:28.475Z,6.93
2023-03-24T12:04:51.074Z,6.95
2023-03-24T12:06:13.916Z,6.63
2023-03-24T12:07:50.122Z,7.38
2023-03-24T12:09:09.513Z,7.70
2023-03-24T12:10:34.178Z,8.30
2023-03-24T12:12:00.818Z,6.65
2023-03-24T12:13:31.784Z,7.47
2023-03-24T12:14:46.895Z,6.88
2023-03-24T12:16:00.752Z,6.05
2023-03-24T12:17:13.994Z,6.47
2023-03-24T12:18:27.611Z,8.05
2023-03-24T12:19:53.963Z,6.03
2023-03-24T12:21:18.751Z,6.35
2023-03-24T12:22:39.425Z,7.65
2023-03-24T12:23:52.087Z,6.22
2023-03-24T12:25:08.966Z,6.90
2023-03-24T12:26:17.126Z,6.57
2023-03-24T12:27:37.563Z,5.32
2023-03-24T12:28:54.985Z,9.68
2023-03-24T12:30:17.351Z,5.97
2023-03-24T12:31:19.592Z,6.68
2023-03-24T12:32:51.414Z,6.85
2023-03-24T12:34:07.441Z,5.82
2023-03-24T12:35:12.027Z,6.72
2023-03-24T12:36:19.858Z,6.85
2023-03-24T12:37:21.495Z,6.95
2023-03-24T12:38:41.827Z,8.98
2023-03-24T12:40:14.287Z,6.65
2023-03-24T12:41:31.036Z,5.43
2023-03-24T12:42:44.747Z,6.05
2023-03-24T12:44:04.828Z,5.63
2023-03-24T12:45:34.388Z,6.63
2023-03-24T12:46:47.670Z,8.52
2023-03-24T12:48:08.461Z,8.52
2023-03-24T12:49:13.106Z,7.63
2023-03-24T12:50:37.293Z,7.28
2023-03-24T12:52:03.516Z,5.05
2023-03-24T12:53:36.745Z,5.05
2023-03-24T12:55:04.966Z,8.60
2023-03-24T12:56:23.525Z,6.63
2023-03-24T12:57:30.525Z,7.93
2023-03-24T12:58:43.187Z,6.85
2023-03-24T12:59:51.183Z,5.03
2023-03-24T13:01:29.673Z,4.28
2023-03-24T13:02:37.812Z,6.38
2023-03-24T13:03:49.897Z,4.28
2023-03-24T13:04:55.900Z,7.20
2023-03-24T13:06:14.538Z,4.90
2023-03-24T13:07:25.950Z,5.40
2023-03-24T13:08:30.672Z,5.82
2023-03-24T13:09:53.386Z,4.90
2023-03-24T13:11:32.287Z,4.72
2023-03-24T13:12:43.956Z,4.13
2023-03-24T13:13:46.644Z,4.35
2023-03-24T13:15:09.238Z,5.53
2023-03-24T13:16:23.398Z,5.57
2023-03-24T13:17:37.331Z,4.18
2023-03-24T13:18:47.675Z,4.40
2023-03-24T13:19:51.965Z,5.07
2023-03-24T13:20:59.059Z,6.47
2023-03-24T13:22:02.542Z,4.72
2023-03-24T13:23:45.909Z,4.72
2023-03-24T13:24:48.632Z,4.93
2023-03-24T13:25:56.254Z,6.13
2023-03-24T13:27:37.074Z,6.88
2023-03-24T13:28:44.268Z,4.33
2023-03-24T13:29:58.343Z,6.38
2023-03-24T13:31:02.675Z,5.13
2023-03-24T13:32:16.162Z,4.55
2023-03-24T13:33:23.761Z,4.03
2023-03-24T13:34:34.546Z,5.10
2023-03-24T13:35:49.989Z,5.78
2023-03-24T13:37:03.076Z,5.07
2023-03-24T13:38:17.995Z,5.40
2023-03-24T13:39:22.186Z,4.90
2023-03-24T13:40:27.015Z,5.85
2023-03-24T13:41:35.360Z,4.85
2023-03-24T13:42:43.326Z,8.45
2023-03-24T13:43:51.173Z,4.25
2023-03-24T13:44:53.028Z,5.43
2023-03-24T13:46:13.709Z,4.75
2023-03-24T13:47:17.469Z,4.47
2023-03-24T13:48:25.018Z,9.05
2023-03-24T13:49:26.800Z,4.97
2023-03-24T13:50:31.530Z,6.28
2023-03-24T13:51:36.036Z,4.25
2023-03-24T13:52:46.035Z,5.20
2023-03-24T13:54:26.836Z,4.45
2023-03-24T13:55:30.961Z,4.00
2023-03-24T13:56:35.008Z,5.07
2023-03-24T13:57:42.025Z,4.05
2023-03-24T13:58:58.965Z,4.38
2023-03-24T14:00:14.499Z,4.97
2023-03-24T14:01:31.671Z,5.10
2023-03-24T14:02:33.462Z,5.95
2023-03-24T14:03:45.805Z,6.13
2023-03-24T14:05:02.240Z,5.35
2023-03-24T14:06:09.543Z,5.15
2023-03-24T14:07:48.738Z,4.35
2023-03-24T14:08:53.424Z,4.72
2023-03-24T14:10:14.021Z,4.22
2023-03-24T14:11:34.341Z,4.85
2023-03-24T14:12:55.272Z,8.38
2023-03-24T14:14:24.666Z,4.10
2023-03-24T14:15:27.747Z,4.55
2023-03-24T14:16:47.550Z,4.85
2023-03-24T14:17:54.653Z,5.25
2023-03-24T14:19:09.917Z,3.90
2023-03-24T14:20:15.143Z,4.18
2023-03-24T14:21:30.526Z,5.05
2023-03-24T14:22:36.832Z,6.10
2023-03-24T14:23:38.550Z,6.70
2023-03-24T14:24:42.784Z,5.20
2023-03-24T14:25:54.726Z,6.13
2023-03-24T14:26:57.279Z,5.03
2023-03-24T14:28:41.469Z,4.43
2023-03-24T14:29:51.121Z,4.30
2023-03-24T14:31:02.770Z,3.80
2023-03-24T14:32:17.112Z,4.03
2023-03-24T14:33:26.066Z,5.50
2023-03-24T14:34:28.829Z,4.15
2023-03-24T14:35:42.204Z,4.78
2023-03-24T14:36:45.596Z,7.15
2023-03-24T14:37:57.094Z,4.90
2023-03-24T14:39:23.621Z,3.92
2023-03-24T14:40:31.879Z,4.68
2023-03-24T14:41:39.250Z,4.25
2023-03-24T14:42:43.868Z,4.18
2023-03-24T14:43:45.555Z,5.28
2023-03-24T14:44:47.350Z,4.30
2023-03-24T14:45:56.742Z,5.10
2023-03-24T14:46:59.589Z,5.90
2023-03-24T14:48:03.576Z,5.60
2023-03-24T14:49:17.051Z,4.55
2023-03-24T14:50:22.186Z,3.88
2023-03-24T14:51:42.113Z,4.03
2023-03-24T14:52:50.385Z,4.22
2023-03-24T14:53:56.657Z,5.22
2023-03-24T14:55:12.577Z,5.25
2023-03-24T14:56:17.197Z,5.32